Auburn, New Jersey
Current Conditions -  °F | °C
As of 9:54 AM on Friday 19 Dec 2014 (Local Time) from KPHL Reporting Station
Overcast Overcast  
Wind Chill:   Ceiling: 3500
Heat Index:   Visibility: 10mi
Dew Point: -4°   Wind: 9mph
Humidity: 57%   Direction: 310°NW
Pressure: 30.11"   Gusts: 18mph
Location:  39.757°N, 75.3338°W
Report Text: KPHL 191454Z 31008G16KT 10SM OVC035 03/M04 A3011 RMK AO2 SLP194 T00331044 51012
Loading
Personal Weather Stations






























Interactive Weather Map New forecast layout! Learn more

10-Day Weather Forecast

Advertisements
Track Severe Weather on mobile